aviador You're here:

KLDJ Decoded Metar

in _UNIDENTIFIED
Report Time2017-03-28 05:55:00
UTC Time2017-03-28 06:10:38
Flight Rules vfr VFR
WindCalm
Visibility9999 m
Phenomena:N/A
Clouds:Broken 034 Hf
Broken 045 Hf
Overcast 110 Hf
Expected CloudBase > 800 ft AGL from Temp-Dew spread
Ceiling3,400 ft
Temp10°C (ISA -5)
Dew Point08°C (88% RH)
AAT9.6°C
QNH1015 hPa
Density Alt-492 ft
Elevation23 ft
Report Wrong Elevation
Raw Report
METAR KLDJ 280555Z AUTO 00000KT 7SM BKN034 BKN045 OVC110 10/08 A2997
RMK AO2 T00960077 10116 20091 401350040=

Extra information for KLDJ:More info

Metar Taf Metar & Taf Last 4 Metars F.Rules Stats Wind Profile Meteogram Temp Stats Metar ALERT Operation Metar Decoded Social comments